Terminal Aerodrome Forecast
Issued by NWS Sioux Falls, SD

Home | Current Version | Previous Version | Text Only | Print | Product List | Glossary On
Versions: 1 2 3 4 5 6 7 8 9 10 11 12 13
000
FTUS43 KFSD 202320
TAFSUX
TAF
KSUX 202320Z 2100/2124 05004KT P6SM SKC
     FM211300 11007KT P6SM BKN150
     FM211600 14011KT P6SM BKN030
     FM212000 16014KT P6SM SCT040 SCT150=

USA.gov is the U.S. government's official web portal to all federal, state and local government web resources and services.